RCE weather

Clarence E Page Municipal Airport
Oklahoma City, Oklahoma, United States

Public forecast

Using degrees Fahrenheit for public forecast. Weather courtesy of forecast.io.

METAR (pilot weather report)

Closest report is Sundance Airpark, 8.9 nm (16.5 km) NE. Retrieved 2019/07/24 05:35 UTC (13 minutes ago):

KHSD 240535Z AUTO 00000KT 10SM CLR 20/12 A3020 RMK A01

TAF (pilot weather forecast)

Forecast is more than 12 hours old.

Closest forecast is Will Rogers World Airport, 12.3 nm (22.8 km) ESE. Retrieved 2019/07/23 00:24 UTC (1 day ago):

TAF KOKC 232320Z 2400/2424 06007KT P6SM SKC